createdAt,value
2023-01-07T00:02:11.167Z,12.70
2023-01-07T00:07:15.940Z,11.80
2023-01-07T00:12:20.051Z,12.10
2023-01-07T00:17:24.012Z,11.40
2023-01-07T00:22:27.911Z,10.20
2023-01-07T00:27:32.873Z,9.10
2023-01-07T00:33:05.260Z,14.00
2023-01-07T00:38:09.194Z,8.90
2023-01-07T00:43:13.218Z,12.00
2023-01-07T00:48:18.972Z,11.90
2023-01-07T00:53:23.649Z,10.10
2023-01-07T00:58:28.198Z,9.30
2023-01-07T01:03:34.100Z,10.30
2023-01-07T01:08:42.501Z,12.50
2023-01-07T01:13:46.831Z,8.80
2023-01-07T01:18:50.857Z,9.30
2023-01-07T01:23:54.996Z,13.70
2023-01-07T01:28:58.905Z,8.60
2023-01-07T01:34:03.100Z,9.10
2023-01-07T01:39:07.608Z,7.50
2023-01-07T01:44:34.045Z,9.00
2023-01-07T01:49:44.222Z,6.80
2023-01-07T01:54:55.494Z,8.70
2023-01-07T02:00:00.260Z,9.90
2023-01-07T02:05:05.942Z,8.90
2023-01-07T02:10:17.035Z,7.40
2023-01-07T02:15:33.040Z,8.10
2023-01-07T02:20:43.315Z,6.00
2023-01-07T02:26:09.259Z,9.00
2023-01-07T02:31:38.290Z,6.90
2023-01-07T02:36:48.993Z,8.50
2023-01-07T02:42:22.950Z,5.40
2023-01-07T02:47:34.862Z,5.80
2023-01-07T02:52:38.991Z,6.70
2023-01-07T02:58:15.807Z,7.70
2023-01-07T03:03:45.003Z,7.80
2023-01-07T03:09:32.498Z,7.10
2023-01-07T03:14:59.273Z,6.80
2023-01-07T03:20:06.159Z,5.30
2023-01-07T03:25:12.231Z,6.50
2023-01-07T03:30:18.885Z,7.20
2023-01-07T03:35:25.292Z,6.40
2023-01-07T03:40:30.379Z,6.70
2023-01-07T03:45:34.539Z,5.40
2023-01-07T03:50:40.883Z,6.00
2023-01-07T03:55:45.025Z,6.20
2023-01-07T04:00:49.080Z,5.50
2023-01-07T04:05:54.014Z,7.10
2023-01-07T04:11:00.515Z,6.90
2023-01-07T04:16:05.138Z,5.30
2023-01-07T04:21:09.183Z,7.10
2023-01-07T04:26:13.214Z,5.20
2023-01-07T04:31:17.613Z,5.10
2023-01-07T04:36:22.185Z,5.80
2023-01-07T04:41:26.545Z,4.70
2023-01-07T04:46:31.255Z,6.40
2023-01-07T04:51:35.313Z,5.90
2023-01-07T04:56:40.379Z,5.20
2023-01-07T05:01:44.729Z,5.50
2023-01-07T05:06:49.664Z,5.50
2023-01-07T05:11:53.694Z,5.60
2023-01-07T05:16:58.198Z,4.90
2023-01-07T05:22:03.405Z,6.10
2023-01-07T05:27:11.213Z,5.00
2023-01-07T05:32:15.663Z,5.60
2023-01-07T05:37:19.893Z,5.50
2023-01-07T05:42:24.946Z,5.50
2023-01-07T05:47:29.185Z,4.50
2023-01-07T05:52:33.020Z,4.30
2023-01-07T05:57:37.270Z,5.30
2023-01-07T06:02:41.392Z,4.80
2023-01-07T06:07:45.361Z,5.70
2023-01-07T06:12:49.443Z,6.50
2023-01-07T06:17:53.495Z,5.70
2023-01-07T06:22:57.511Z,4.60
2023-01-07T06:28:01.444Z,4.20
2023-01-07T06:33:05.886Z,3.90
2023-01-07T06:38:09.715Z,4.20
2023-01-07T06:43:13.605Z,5.30
2023-01-07T06:48:17.789Z,3.60
2023-01-07T06:53:21.718Z,4.10
2023-01-07T06:58:25.641Z,5.20
2023-01-07T07:03:29.671Z,4.50
2023-01-07T07:08:33.555Z,4.30
2023-01-07T07:13:37.636Z,4.90
2023-01-07T07:18:41.564Z,3.90
2023-01-07T07:23:45.702Z,4.60
2023-01-07T07:28:49.508Z,3.80
2023-01-07T07:33:53.575Z,5.90
2023-01-07T07:38:57.651Z,4.00
2023-01-07T07:44:01.605Z,3.70
2023-01-07T07:49:06.373Z,4.00
2023-01-07T07:54:10.411Z,3.40
2023-01-07T07:59:14.541Z,3.90
2023-01-07T08:04:18.572Z,4.60
2023-01-07T08:09:22.609Z,3.80
2023-01-07T08:14:26.637Z,4.40
2023-01-07T08:19:30.544Z,3.70
2023-01-07T08:24:34.605Z,3.60
2023-01-07T08:29:38.754Z,3.20
2023-01-07T08:34:42.556Z,5.10
2023-01-07T08:39:46.604Z,3.90
2023-01-07T08:44:50.728Z,8.30
2023-01-07T08:49:55.756Z,5.60
2023-01-07T08:54:59.615Z,11.10
2023-01-07T09:00:04.628Z,11.60
2023-01-07T09:05:09.379Z,10.50
2023-01-07T09:10:13.431Z,12.20
2023-01-07T09:15:17.705Z,5.30
2023-01-07T09:20:21.832Z,5.00
2023-01-07T09:32:27.273Z,4.50
2023-01-07T09:37:31.405Z,9.90
2023-01-07T09:42:41.473Z,5.90
2023-01-07T09:47:50.205Z,9.20
2023-01-07T09:52:58.083Z,8.20
2023-01-07T09:58:02.248Z,6.50
2023-01-07T10:03:26.669Z,15.30
2023-01-07T10:08:45.107Z,7.70
2023-01-07T10:14:10.401Z,7.20
2023-01-07T10:19:29.099Z,9.30
2023-01-07T10:24:37.763Z,7.40
2023-01-07T10:29:54.777Z,5.80
2023-01-07T10:35:01.175Z,12.40
2023-01-07T10:40:30.479Z,8.30
2023-01-07T10:45:59.013Z,7.70
2023-01-07T10:51:37.280Z,7.30
2023-01-07T10:56:49.183Z,12.30
2023-01-07T11:07:06.262Z,10.00
2023-01-07T11:12:40.378Z,6.50
2023-01-07T11:18:00.299Z,7.10
2023-01-07T11:23:20.261Z,6.20
2023-01-07T11:28:27.671Z,5.40
2023-01-07T11:34:01.859Z,7.10
2023-01-07T11:39:19.160Z,7.30
2023-01-07T11:44:23.696Z,12.20
2023-01-07T11:49:30.807Z,6.60
2023-01-07T11:54:34.801Z,5.90
2023-01-07T11:59:38.885Z,5.20
2023-01-07T12:04:42.978Z,5.00
2023-01-07T12:09:47.236Z,4.40
2023-01-07T12:14:51.243Z,4.50
2023-01-07T12:20:33.559Z,12.00
2023-01-07T12:25:58.966Z,6.30
2023-01-07T12:31:32.670Z,6.30
2023-01-07T12:36:54.891Z,5.80
2023-01-07T12:42:23.775Z,4.70
2023-01-07T12:47:42.652Z,6.10
2023-01-07T12:52:57.509Z,3.80
2023-01-07T12:58:26.275Z,5.40
2023-01-07T13:03:44.704Z,5.60
2023-01-07T13:09:34.147Z,8.20
2023-01-07T13:14:45.968Z,10.90
2023-01-07T13:19:50.908Z,11.20
2023-01-07T13:25:21.134Z,6.00
2023-01-07T13:30:48.611Z,6.90
2023-01-07T13:36:14.697Z,6.80
2023-01-07T13:41:33.785Z,7.90
2023-01-07T13:46:42.887Z,7.80
2023-01-07T13:51:47.162Z,6.20
2023-01-07T13:56:53.138Z,5.40
2023-01-07T14:02:30.842Z,6.60
2023-01-07T14:08:01.877Z,6.50
2023-01-07T14:13:20.853Z,6.60
2023-01-07T14:18:27.931Z,5.50
2023-01-07T14:23:39.592Z,7.20
2023-01-07T14:29:16.749Z,6.80
2023-01-07T14:34:27.230Z,5.70
2023-01-07T14:39:32.281Z,8.70
2023-01-07T14:44:36.306Z,10.80
2023-01-07T14:49:49.464Z,13.10
2023-01-07T14:55:10.483Z,7.10
2023-01-07T15:00:36.328Z,9.50
2023-01-07T15:05:58.765Z,7.20
2023-01-07T15:11:26.433Z,6.50
2023-01-07T15:16:34.397Z,9.80
2023-01-07T15:21:56.699Z,13.50
2023-01-07T15:27:28.988Z,10.00
2023-01-07T15:33:14.875Z,10.00
2023-01-07T15:38:46.832Z,12.50
2023-01-07T15:43:52.199Z,11.70
2023-01-07T15:49:17.711Z,10.70
2023-01-07T15:54:34.739Z,15.80
2023-01-07T15:59:53.019Z,12.50
2023-01-07T16:05:01.268Z,14.00
2023-01-07T16:10:05.568Z,10.70
2023-01-07T16:15:34.799Z,11.10
2023-01-07T16:21:00.607Z,15.30
2023-01-07T16:26:15.914Z,16.70
2023-01-07T16:31:24.816Z,13.60
2023-01-07T16:36:32.968Z,17.40
2023-01-07T16:41:37.797Z,16.40
2023-01-07T16:46:43.269Z,13.60
2023-01-07T16:52:02.783Z,20.60
2023-01-07T16:57:17.135Z,16.20
2023-01-07T17:02:49.234Z,15.80
2023-01-07T17:08:00.539Z,20.00
2023-01-07T17:13:32.700Z,15.50
2023-01-07T17:18:36.719Z,35.80
2023-01-07T17:23:45.915Z,46.00
2023-01-07T17:29:00.744Z,38.80
2023-01-07T17:34:04.780Z,37.00
2023-01-07T17:39:08.905Z,31.40
2023-01-07T17:44:14.885Z,29.00
2023-01-07T17:49:20.747Z,29.10
2023-01-07T17:54:25.921Z,35.40
2023-01-07T17:59:30.744Z,32.90
2023-01-07T18:04:34.610Z,30.60
2023-01-07T18:09:42.270Z,27.80
2023-01-07T18:14:46.661Z,27.70
2023-01-07T18:19:51.031Z,26.60
2023-01-07T18:24:55.249Z,23.80
2023-01-07T18:29:59.375Z,24.40
2023-01-07T18:35:03.415Z,21.10
2023-01-07T18:40:09.733Z,22.60
2023-01-07T18:45:14.396Z,19.40
2023-01-07T18:50:18.579Z,20.70
2023-01-07T18:55:22.522Z,19.90
2023-01-07T19:00:26.769Z,26.20
2023-01-07T19:05:30.963Z,22.20
2023-01-07T19:10:43.664Z,30.60
2023-01-07T19:15:47.843Z,18.30
2023-01-07T19:20:53.797Z,22.40
2023-01-07T19:26:09.920Z,25.10
2023-01-07T19:31:16.526Z,32.90
2023-01-07T19:36:21.367Z,26.60
2023-01-07T19:41:27.387Z,24.90
2023-01-07T19:46:34.687Z,19.00
2023-01-07T19:51:42.831Z,18.10
2023-01-07T19:56:46.909Z,18.00
2023-01-07T20:02:15.130Z,16.70
2023-01-07T20:07:21.430Z,22.50
2023-01-07T20:12:25.412Z,19.60
2023-01-07T20:17:29.858Z,18.80
2023-01-07T20:22:34.830Z,16.50
2023-01-07T20:27:39.037Z,19.50
2023-01-07T20:32:42.776Z,27.00
2023-01-07T20:37:46.714Z,17.70
2023-01-07T20:43:40.781Z,24.70
2023-01-07T20:48:45.724Z,28.10
2023-01-07T20:53:51.917Z,19.50
2023-01-07T20:58:57.889Z,17.80
2023-01-07T21:04:04.116Z,17.70
2023-01-07T21:09:09.536Z,25.00
2023-01-07T21:14:13.884Z,20.70
2023-01-07T21:19:17.937Z,20.80
2023-01-07T21:24:24.089Z,22.60
2023-01-07T21:29:28.153Z,26.30
2023-01-07T21:34:32.184Z,18.10
2023-01-07T21:39:36.087Z,21.80
2023-01-07T21:44:40.621Z,17.80
2023-01-07T21:49:44.769Z,30.80
2023-01-07T21:54:48.698Z,21.90
2023-01-07T21:59:52.840Z,15.10
2023-01-07T22:04:56.761Z,15.80
2023-01-07T22:10:00.906Z,20.10
2023-01-07T22:15:06.230Z,16.90
2023-01-07T22:20:11.841Z,13.40
2023-01-07T22:25:16.263Z,16.50
2023-01-07T22:30:22.372Z,20.20
2023-01-07T22:35:27.506Z,17.00
2023-01-07T22:40:35.182Z,18.90
2023-01-07T22:45:51.045Z,17.10
2023-01-07T22:51:01.024Z,14.40
2023-01-07T22:56:07.466Z,16.80
2023-01-07T23:01:14.962Z,15.90
2023-01-07T23:06:19.343Z,15.40
2023-01-07T23:11:41.972Z,17.20
2023-01-07T23:16:46.208Z,16.30
2023-01-07T23:21:53.400Z,15.50
2023-01-07T23:26:57.654Z,15.30
2023-01-07T23:32:02.062Z,15.10
2023-01-07T23:37:06.646Z,14.00
2023-01-07T23:42:10.668Z,15.40
2023-01-07T23:47:16.938Z,11.80
2023-01-07T23:52:21.110Z,12.20
2023-01-07T23:57:25.558Z,16.00
